Time;durP1;ratioP1;P1;durP2;ratioP2;P2;SDS_P1;SDS_P2;PMS_P1;PMS_P2;Temp;Humidity;BMP_temperature;BMP_pressure;BME280_temperature;BME280_humidity;BME280_pressure;Samples;Min_cycle;Max_cycle;Signal;HPM_P1;HPM_P2
2023/11/20 00:01:48;;;;;;;16.83;8.50;;;;;;;1.48;74.56;99197.06;6165374;23;20080;-94
2023/11/20 00:04:13;;;;;;;15.43;8.82;;;;;;;1.35;75.21;99169.59;6140586;23;20001;-94
2023/11/20 00:06:39;;;;;;;11.55;8.02;;;;;;;1.47;74.45;99185.63;6139738;23;20004;-93
2023/11/20 00:09:04;;;;;;;18.90;10.00;;;;;;;1.32;74.42;99164.69;6165312;23;20475;-94
2023/11/20 00:11:30;;;;;;;13.38;8.15;;;;;;;1.30;74.73;99171.25;6116389;23;20385;-93
2023/11/20 00:13:55;;;;;;;13.32;7.78;;;;;;;1.36;75.30;99202.22;6139319;23;20009;-93
2023/11/20 00:16:21;;;;;;;13.48;7.03;;;;;;;1.14;74.70;99161.94;6168411;23;20020;-93
2023/11/20 00:18:50;;;;;;;13.35;7.70;;;;;;;1.30;74.30;99169.41;6145586;23;20004;-93
2023/11/20 00:21:15;;;;;;;10.07;6.22;;;;;;;1.37;74.28;99191.41;6170874;23;20019;-95
2023/11/20 00:23:41;;;;;;;9.93;7.00;;;;;;;1.17;73.98;99178.25;6169026;23;20004;-94
2023/11/20 00:26:10;;;;;;;10.02;6.47;;;;;;;1.20;74.71;99177.84;6168650;23;20000;-93
2023/11/20 00:28:36;;;;;;;11.27;7.35;;;;;;;1.36;74.94;99188.97;6169137;23;20007;-95
2023/11/20 00:31:01;;;;;;;12.80;6.95;;;;;;;1.58;74.33;99182.31;6168223;23;19997;-93
2023/11/20 00:33:27;;;;;;;11.55;7.18;;;;;;;1.53;73.33;99155.59;6145816;23;20336;-94
2023/11/20 00:35:53;;;;;;;12.77;7.25;;;;;;;1.48;73.69;99152.78;6145225;23;20487;-94
2023/11/20 00:38:18;;;;;;;13.82;7.00;;;;;;;1.58;74.20;99160.28;6170623;23;20000;-94
2023/11/20 00:40:44;;;;;;;11.30;6.80;;;;;;;1.48;73.72;99152.78;6169971;23;20012;-93
2023/11/20 00:43:09;;;;;;;12.05;6.93;;;;;;;1.39;73.67;99144.28;6145682;23;19997;-94
2023/11/20 00:45:35;;;;;;;12.38;7.07;;;;;;;1.59;73.74;99175.16;6169275;23;19996;-95
2023/11/20 00:48:01;;;;;;;15.32;7.25;;;;;;;1.66;74.26;99175.09;6146640;23;20092;-94
2023/11/20 00:50:26;;;;;;;10.80;6.57;;;;;;;1.62;73.73;99150.84;6170769;23;20005;-94
2023/11/20 00:52:52;;;;;;;12.85;7.25;;;;;;;1.75;74.09;99169.31;6169869;23;20083;-94
2023/11/20 00:55:18;;;;;;;13.90;7.90;;;;;;;1.67;73.91;99161.63;6144858;23;20026;-95
2023/11/20 00:57:44;;;;;;;16.60;8.70;;;;;;;1.62;73.31;99156.16;6169592;23;20005;-94
2023/11/20 01:00:11;;;;;;;16.42;8.02;;;;;;;1.51;73.90;99160.28;6144829;23;20075;-95
2023/11/20 01:02:37;;;;;;;11.82;7.22;;;;;;;1.71;73.64;99194.66;6145550;23;20043;-94
2023/11/20 01:05:03;;;;;;;13.65;7.55;;;;;;;1.59;74.03;99169.84;6168598;23;20000;-94
2023/11/20 01:07:29;;;;;;;11.07;7.10;;;;;;;1.60;73.68;99164.31;6144543;23;20074;-94
2023/11/20 01:09:54;;;;;;;12.65;7.35;;;;;;;1.79;73.44;99178.47;6169386;23;19993;-94
2023/11/20 01:12:20;;;;;;;14.75;7.95;;;;;;;1.61;74.44;99173.09;6170257;23;20000;-94
2023/11/20 01:14:45;;;;;;;14.23;7.63;;;;;;;1.58;74.21;99174.34;6144325;23;20005;-94
2023/11/20 01:17:11;;;;;;;13.48;7.38;;;;;;;1.65;73.82;99182.25;6145223;23;20032;-94
2023/11/20 01:19:37;;;;;;;14.30;7.32;;;;;;;1.62;73.66;99164.13;6146084;23;20000;-94
2023/11/20 01:22:02;;;;;;;12.45;7.07;;;;;;;1.80;74.01;99190.72;6171599;23;20004;-93
2023/11/20 01:24:29;;;;;;;14.30;7.93;;;;;;;1.61;74.52;99168.59;6145998;23;20007;-94
2023/11/20 01:26:56;;;;;;;10.60;7.30;;;;;;;1.69;74.41;99156.09;6148399;23;20000;-94
2023/11/20 01:29:22;;;;;;;14.48;7.88;;;;;;;1.73;73.94;99171.38;6170979;23;20001;-93
2023/11/20 01:31:48;;;;;;;16.25;7.93;;;;;;;1.72;74.11;99164.47;6171702;23;20007;-93
2023/11/20 01:34:13;;;;;;;15.30;8.50;;;;;;;1.77;74.48;99166.47;6146762;23;20355;-94
2023/11/20 01:36:39;;;;;;;15.05;8.65;;;;;;;1.73;74.40;99152.00;6171711;23;20035;-94
2023/11/20 01:39:05;;;;;;;14.90;9.30;;;;;;;1.84;73.53;99155.78;6171212;23;19997;-93
2023/11/20 01:41:31;;;;;;;14.18;8.10;;;;;;;1.61;74.38;99147.38;6195882;23;20087;-95
2023/11/20 01:43:56;;;;;;;14.60;7.28;;;;;;;1.70;73.94;99163.03;6172526;23;20436;-93
2023/11/20 01:46:22;;;;;;;13.18;7.40;;;;;;;1.66;73.24;99159.19;6149301;23;20062;-93
2023/11/20 01:48:48;;;;;;;13.80;7.05;;;;;;;1.71;73.36;99183.25;6147715;23;20007;-93
2023/11/20 01:51:13;;;;;;;10.68;6.68;;;;;;;1.56;74.25;99173.75;6172681;23;20071;-93
2023/11/20 01:53:39;;;;;;;12.85;6.63;;;;;;;1.42;74.02;99165.06;6170545;23;20004;-94
2023/11/20 01:56:06;;;;;;;14.18;8.73;;;;;;;1.47;74.03;99166.25;6145726;23;20493;-94
2023/11/20 01:58:32;;;;;;;14.50;9.18;;;;;;;1.54;73.71;99167.03;6145739;23;20027;-93
2023/11/20 02:00:58;;;;;;;12.88;8.25;;;;;;;1.42;74.43;99164.25;6195485;23;20074;-94
2023/11/20 02:03:24;;;;;;;17.30;9.38;;;;;;;1.45;73.92;99166.47;6145817;23;20459;-93
2023/11/20 02:05:50;;;;;;;15.98;7.80;;;;;;;1.41;74.56;99178.53;6147006;23;20003;-94
2023/11/20 02:08:15;;;;;;;16.20;8.27;;;;;;;1.34;74.51;99178.56;6147114;23;20011;-93
2023/11/20 02:10:45;;;;;;;21.88;9.30;;;;;;;1.34;75.07;99165.31;6170906;23;19997;-93
2023/11/20 02:13:10;;;;;;;14.40;8.05;;;;;;;1.42;75.12;99167.69;6146707;23;20000;-94
2023/11/20 02:15:36;;;;;;;16.70;9.00;;;;;;;1.52;74.24;99169.09;6145374;23;20011;-95
2023/11/20 02:18:03;;;;;;;13.65;8.63;;;;;;;1.71;74.45;99184.06;6144980;23;20070;-94
2023/11/20 02:20:28;;;;;;;18.25;9.05;;;;;;;1.64;74.06;99171.84;6146445;23;20066;-94
2023/11/20 02:22:54;;;;;;;17.20;8.93;;;;;;;1.58;74.49;99174.34;6144982;23;20005;-94
2023/11/20 02:25:19;;;;;;;15.27;8.63;;;;;;;1.47;74.71;99152.97;6169985;23;20001;-94
2023/11/20 02:28:02;;;;;;;15.10;9.23;;;;;;;1.70;73.62;99181.59;6144849;23;20001;-93
2023/11/20 02:30:30;;;;;;;16.02;9.55;;;;;;;1.64;73.48;99164.72;6168837;23;20079;-94
2023/11/20 02:32:56;;;;;;;22.52;9.50;;;;;;;1.61;73.86;99167.78;6145875;23;20004;-94
2023/11/20 02:35:24;;;;;;;28.15;9.85;;;;;;;1.46;73.74;99149.53;6145156;23;20320;-94
2023/11/20 02:37:50;;;;;;;16.55;9.85;;;;;;;1.47;73.88;99158.28;6170360;23;20435;-95
2023/11/20 02:40:15;;;;;;;17.88;9.50;;;;;;;1.56;73.35;99165.78;6145503;23;19996;-94
2023/11/20 02:42:41;;;;;;;17.05;9.50;;;;;;;1.59;73.65;99168.00;6145525;23;20035;-93
2023/11/20 02:45:07;;;;;;;17.38;9.80;;;;;;;1.60;73.70;99163.53;6171037;23;20058;-94
2023/11/20 02:47:34;;;;;;;15.80;9.05;;;;;;;1.73;73.82;99182.00;6145792;23;20010;-93
2023/11/20 02:50:00;;;;;;;19.35;9.20;;;;;;;1.59;74.23;99153.91;6145635;23;19997;-94
2023/11/20 02:52:25;;;;;;;14.60;8.52;;;;;;;1.68;73.61;99160.59;6170576;23;20001;-93
2023/11/20 02:54:51;;;;;;;22.58;9.82;;;;;;;1.92;73.02;99168.78;6145852;23;20150;-94
2023/11/20 02:57:17;;;;;;;18.58;9.60;;;;;;;1.96;73.10;99175.28;6169406;23;20004;-94
2023/11/20 02:59:42;;;;;;;19.00;9.38;;;;;;;1.88;73.17;99149.00;6170055;23;20000;-94
2023/11/20 03:02:08;;;;;;;16.48;9.25;;;;;;;2.11;73.74;99172.28;6169769;23;20000;-94
2023/11/20 03:04:33;;;;;;;16.35;9.35;;;;;;;2.04;72.21;99121.09;6169899;23;20003;-94
2023/11/20 03:06:59;;;;;;;14.93;8.68;;;;;;;2.21;72.13;99122.94;6168919;23;20143;-93
2023/11/20 03:09:25;;;;;;;18.25;9.75;;;;;;;2.26;72.25;99135.56;6144837;23;20007;-94
2023/11/20 03:11:50;;;;;;;18.92;9.27;;;;;;;2.39;72.78;99162.00;6168932;23;20067;-94
2023/11/20 03:14:16;;;;;;;15.80;9.25;;;;;;;2.11;73.04;99105.91;6169357;23;20007;-94
2023/11/20 03:16:42;;;;;;;16.80;8.95;;;;;;;2.31;73.39;99129.63;6144387;23;20020;-95
2023/11/20 03:19:08;;;;;;;18.23;9.70;;;;;;;2.53;73.05;99154.72;6144500;23;20000;-94
2023/11/20 03:21:36;;;;;;;13.98;8.25;;;;;;;2.34;72.84;99124.66;6169304;23;20028;-94
2023/11/20 03:24:03;;;;;;;16.25;8.63;;;;;;;2.70;72.61;99154.94;6144535;23;20008;-95
2023/11/20 03:26:29;;;;;;;18.02;9.32;;;;;;;2.51;72.12;99119.59;6168540;23;20001;-93
2023/11/20 03:28:54;;;;;;;16.88;9.60;;;;;;;2.77;72.23;99137.06;6168878;23;20063;-94
2023/11/20 03:31:20;;;;;;;13.02;8.35;;;;;;;2.97;71.62;99136.81;6169281;23;19993;-94
2023/11/20 03:33:46;;;;;;;17.00;9.07;;;;;;;3.05;70.42;99130.38;6168178;23;20004;-94
2023/11/20 03:36:13;;;;;;;18.13;8.93;;;;;;;3.15;70.48;99130.63;6142658;23;20001;-93
2023/11/20 03:38:38;;;;;;;22.30;9.95;;;;;;;3.10;71.66;99143.00;6167737;23;20000;-96
2023/11/20 03:41:05;;;;;;;17.70;9.65;;;;;;;3.33;71.18;99164.34;6143811;23;20004;-95
2023/11/20 03:43:31;;;;;;;18.15;8.95;;;;;;;3.25;71.63;99143.38;6143283;23;20000;-95
2023/11/20 03:45:56;;;;;;;13.70;8.82;;;;;;;3.38;71.15;99161.84;6142752;23;20092;-95
2023/11/20 03:48:22;;;;;;;17.35;9.82;;;;;;;3.42;70.68;99140.88;6143544;23;20008;-94
2023/11/20 03:50:47;;;;;;;18.45;9.45;;;;;;;3.31;70.42;99145.13;6168030;23;20443;-94
2023/11/20 03:53:13;;;;;;;16.95;9.45;;;;;;;3.39;70.94;99144.00;6143945;23;20004;-94
2023/11/20 03:55:41;;;;;;;18.30;9.30;;;;;;;3.44;71.13;99157.44;6143064;23;20028;-95
2023/11/20 03:58:06;;;;;;;17.08;8.95;;;;;;;3.31;71.01;99123.84;6169794;23;20004;-94
2023/11/20 04:00:32;;;;;;;16.65;8.68;;;;;;;3.51;70.53;99154.69;6143369;23;20003;-94
2023/11/20 04:03:01;;;;;;;19.90;9.45;;;;;;;3.38;70.88;99139.72;6143866;23;20048;-93
2023/11/20 04:05:26;;;;;;;15.02;8.77;;;;;;;3.34;70.41;99131.41;6145138;23;20432;-93
2023/11/20 04:07:52;;;;;;;15.55;9.23;;;;;;;3.38;70.41;99153.03;6168255;23;20024;-93
2023/11/20 04:10:18;;;;;;;17.70;9.00;;;;;;;3.62;70.66;99173.34;6145309;23;20000;-93
2023/11/20 04:12:46;;;;;;;16.05;10.05;;;;;;;3.57;70.19;99175.91;6168279;23;20004;-95
2023/11/20 04:15:12;;;;;;;18.35;9.48;;;;;;;3.52;71.42;99162.44;6144972;23;20487;-93
2023/11/20 04:17:38;;;;;;;18.42;10.40;;;;;;;3.60;71.25;99178.09;6142736;23;20017;-93
2023/11/20 04:20:05;;;;;;;19.95;10.07;;;;;;;3.58;70.56;99144.75;6143880;23;20008;-93
2023/11/20 04:22:31;;;;;;;16.52;9.85;;;;;;;3.71;69.30;99149.88;6145626;23;20016;-93
2023/11/20 04:24:56;;;;;;;45.20;11.35;;;;;;;3.66;70.53;99164.94;6144827;23;20005;-94
2023/11/20 04:27:23;;;;;;;15.77;8.95;;;;;;;3.69;70.38;99175.91;6167142;23;20004;-95
2023/11/20 04:29:49;;;;;;;16.92;8.90;;;;;;;3.77;70.04;99175.56;6167946;23;20092;-94
2023/11/20 04:32:14;;;;;;;16.65;9.57;;;;;;;3.85;69.77;99166.44;6168336;23;20091;-93
2023/11/20 04:34:40;;;;;;;20.27;10.52;;;;;;;3.91;70.42;99202.03;6143516;23;20000;-92
2023/11/20 04:37:05;;;;;;;15.23;8.23;;;;;;;3.67;71.26;99180.66;6142847;23;19997;-93
2023/11/20 04:39:31;;;;;;;20.48;10.82;;;;;;;3.56;71.72;99155.63;6168001;23;20356;-93
2023/11/20 04:41:58;;;;;;;17.85;9.02;;;;;;;3.46;70.83;99159.88;6168309;23;20027;-94
2023/11/20 04:44:24;;;;;;;17.50;9.23;;;;;;;3.61;70.56;99171.75;6147615;23;20000;-94
2023/11/20 04:46:52;;;;;;;15.00;9.02;;;;;;;3.59;70.53;99155.19;6168623;23;20000;-94
2023/11/20 04:49:18;;;;;;;19.75;9.88;;;;;;;3.76;70.54;99189.16;6145033;23;20035;-94
2023/11/20 04:51:43;;;;;;;16.85;9.50;;;;;;;3.75;71.27;99182.19;6170459;23;20024;-93
2023/11/20 04:54:12;;;;;;;17.02;9.45;;;;;;;3.60;71.20;99161.31;6168016;23;20011;-94
2023/11/20 04:56:37;;;;;;;28.00;16.20;;;;;;;3.56;71.70;99160.94;6142954;23;20027;-95
2023/11/20 04:59:04;;;;;;;18.75;10.38;;;;;;;3.49;71.60;99162.09;6168158;23;19996;-95
2023/11/20 05:01:33;;;;;;;16.65;9.75;;;;;;;3.58;71.32;99163.41;6167823;23;20091;-96
2023/11/20 05:03:59;;;;;;;20.88;10.90;;;;;;;3.60;71.41;99175.44;6143863;23;20001;-95
2023/11/20 05:06:25;;;;;;;13.32;9.43;;;;;;;3.69;71.29;99162.59;6142480;23;20001;-95
2023/11/20 05:08:53;;;;;;;17.63;10.93;;;;;;;3.63;72.17;99175.00;6168252;23;20044;-96
2023/11/20 05:11:19;;;;;;;17.95;10.98;;;;;;;3.74;71.91;99186.69;6144355;23;20004;-93
2023/11/20 05:13:44;;;;;;;19.95;10.50;;;;;;;3.84;71.79;99181.63;6143807;23;20008;-94
2023/11/20 05:16:11;;;;;;;29.20;12.18;;;;;;;3.85;71.56;99179.78;6165665;23;20024;-93
2023/11/20 05:18:36;;;;;;;24.27;12.93;;;;;;;3.82;71.50;99172.25;6192012;23;20000;-91
2023/11/20 05:21:02;;;;;;;28.67;12.57;;;;;;;3.96;71.45;99194.13;6190449;23;20024;-92
2023/11/20 05:23:28;;;;;;;25.00;13.75;;;;;;;3.91;71.14;99175.38;6165448;23;20028;-91
2023/11/20 05:25:55;;;;;;;26.20;12.75;;;;;;;3.92;71.91;99169.00;6165758;23;20000;-92
2023/11/20 05:28:20;;;;;;;21.20;10.57;;;;;;;3.82;71.05;99156.28;6167907;23;19996;-91
2023/11/20 05:30:46;;;;;;;24.08;12.77;;;;;;;4.04;70.74;99183.16;6140994;23;20477;-91
2023/11/20 05:33:12;;;;;;;29.70;14.35;;;;;;;3.87;71.14;99152.91;6166657;23;20084;-92
2023/11/20 05:35:39;;;;;;;28.10;13.57;;;;;;;3.85;70.82;99150.47;6169439;23;20437;-94
2023/11/20 05:38:05;;;;;;;25.05;14.07;;;;;;;3.75;71.25;99147.56;6145640;23;20005;-94
2023/11/20 05:40:32;;;;;;;29.70;12.77;;;;;;;3.87;71.27;99156.38;6170035;23;20068;-92
2023/11/20 05:42:57;;;;;;;34.90;14.80;;;;;;;4.01;71.00;99180.97;6147193;23;20394;-94
2023/11/20 05:45:27;;;;;;;26.52;13.60;;;;;;;4.08;71.44;99180.84;6147320;23;20014;-92
2023/11/20 05:47:52;;;;;;;27.27;13.98;;;;;;;4.04;71.20;99165.31;6168979;23;20055;-93
2023/11/20 05:50:18;;;;;;;29.48;14.25;;;;;;;4.00;70.81;99164.13;6170798;23;20056;-93
2023/11/20 05:52:44;;;;;;;26.00;12.73;;;;;;;4.01;71.02;99146.31;6173460;23;20010;-96
2023/11/20 05:55:19;;;;;;;29.35;14.07;;;;;;;4.06;70.72;99154.41;6175414;23;20004;-96
2023/11/20 05:57:51;;;;;;;27.42;12.63;;;;;;;4.02;70.92;99154.06;6178849;23;20000;-95
2023/11/20 06:00:17;;;;;;;24.52;12.20;;;;;;;4.11;70.55;99159.06;6172685;23;20059;-92
2023/11/20 06:03:01;;;;;;;25.23;12.80;;;;;;;3.99;70.31;99149.22;6169385;23;20003;-92
2023/11/20 06:05:27;;;;;;;24.85;12.73;;;;;;;4.35;70.41;99174.00;6196015;23;20040;-93
2023/11/20 06:07:53;;;;;;;31.83;14.68;;;;;;;4.02;71.19;99153.25;6147564;23;20005;-91
2023/11/20 06:10:18;;;;;;;35.80;17.05;;;;;;;4.12;70.29;99158.03;6174983;23;20351;-96
2023/11/20 06:13:00;;;;;;;31.00;16.27;;;;;;;4.21;70.62;99156.63;6202396;23;20387;-94
2023/11/20 06:15:26;;;;;;;;;;;;;;;4.39;70.43;99185.03;6145995;23;20339;-93
2023/11/20 06:17:51;;;;;;;29.98;15.68;;;;;;;4.13;70.74;99157.81;6171183;23;19912;-93
2023/11/20 06:20:18;;;;;;;32.05;16.80;;;;;;;4.21;70.98;99162.78;6170267;23;20013;-93
2023/11/20 06:22:49;;;;;;;38.55;16.98;;;;;;;4.44;70.55;99187.78;6168842;23;20403;-94
2023/11/20 06:25:15;;;;;;;30.70;14.88;;;;;;;4.46;71.37;99188.34;6168657;23;20007;-92
2023/11/20 06:27:42;;;;;;;28.77;15.43;;;;;;;4.53;71.03;99185.59;6204715;23;20000;-96
2023/11/20 06:30:10;;;;;;;25.67;14.88;;;;;;;4.40;70.07;99173.28;6158116;23;20000;-96
2023/11/20 06:32:36;;;;;;;25.75;14.73;;;;;;;4.67;69.68;99197.63;6159073;23;20099;-95
2023/11/20 06:35:03;;;;;;;38.53;15.65;;;;;;;4.78;69.86;99191.47;6150594;23;20000;-93
2023/11/20 06:37:38;;;;;;;27.85;15.65;;;;;;;4.92;68.90;99192.03;6168980;23;20000;-94
2023/11/20 06:40:07;;;;;;;45.03;24.40;;;;;;;5.02;68.50;99194.06;6150467;23;20095;-93
2023/11/20 06:42:32;;;;;;;32.72;16.15;;;;;;;5.00;68.30;99190.81;6174229;23;20356;-94
2023/11/20 06:44:58;;;;;;;39.88;18.25;;;;;;;4.93;68.60;99192.84;6172893;23;19992;-94
2023/11/20 06:47:23;;;;;;;30.85;15.85;;;;;;;5.11;68.53;99195.34;6149927;23;20024;-95
2023/11/20 06:49:49;;;;;;;31.75;15.57;;;;;;;5.14;67.78;99180.69;6177148;23;19996;-94
2023/11/20 06:52:18;;;;;;;30.58;17.35;;;;;;;5.24;68.48;99180.91;6175925;23;20027;-94
2023/11/20 06:55:09;;;;;;;32.90;16.13;;;;;;;5.47;67.92;99190.66;6176437;23;20036;-95
2023/11/20 06:57:40;;;;;;;44.13;18.30;;;;;;;5.49;68.60;99183.22;6177341;23;20009;-96
2023/11/20 07:00:07;;;;;;;47.83;23.48;;;;;;;5.47;68.24;99167.44;6169794;23;20008;-91
2023/11/20 07:02:32;;;;;;;38.10;18.83;;;;;;;5.64;68.15;99182.69;6192282;23;20079;-93
2023/11/20 07:04:58;;;;;;;34.10;18.27;;;;;;;5.63;67.71;99170.38;6171923;23;20003;-96
2023/11/20 07:07:25;;;;;;;34.92;18.98;;;;;;;5.59;67.71;99169.25;6148712;23;20011;-94
2023/11/20 07:09:55;;;;;;;37.95;18.50;;;;;;;5.81;67.34;99177.34;6144394;23;20005;-94
2023/11/20 07:12:45;;;;;;;34.58;18.13;;;;;;;5.68;66.85;99162.44;6173369;23;20000;-94
2023/11/20 07:16:03;;;;;;;32.75;16.10;;;;;;;6.00;65.82;99186.00;6209039;23;20004;-95
2023/11/20 07:18:35;;;;;;;33.92;17.73;;;;;;;6.02;65.10;99165.97;6202197;23;20020;-95
2023/11/20 07:21:03;;;;;;;34.67;19.17;;;;;;;6.27;64.55;99183.47;6153227;23;20012;-93
2023/11/20 07:23:32;;;;;;;36.63;19.30;;;;;;;6.35;64.14;99166.19;6167719;23;20000;-92
2023/11/20 07:25:57;;;;;;;44.80;21.42;;;;;;;6.43;63.69;99165.75;6167968;23;20007;-92
2023/11/20 07:28:23;;;;;;;36.67;19.13;;;;;;;6.46;63.96;99173.31;6143677;23;19996;-92
2023/11/20 07:30:48;;;;;;;39.03;19.77;;;;;;;6.38;63.54;99131.75;6144375;23;20005;-93
2023/11/20 07:33:14;;;;;;;46.97;20.48;;;;;;;6.50;63.06;99133.50;6170908;23;20000;-92
2023/11/20 07:35:40;;;;;;;41.45;21.52;;;;;;;6.73;62.49;99137.81;6144668;23;19997;-90
2023/11/20 07:38:06;;;;;;;35.85;18.90;;;;;;;6.76;62.56;99134.63;6218048;23;19997;-90
2023/11/20 07:40:32;;;;;;;38.17;18.80;;;;;;;7.07;62.47;99163.34;6145508;23;20011;-94
2023/11/20 07:43:03;;;;;;;42.50;24.45;;;;;;;7.08;61.92;99153.47;6147071;23;20432;-96
2023/11/20 07:45:32;;;;;;;47.33;21.45;;;;;;;7.08;61.63;99148.94;6153624;23;20062;-94
2023/11/20 07:48:04;;;;;;;31.58;18.45;;;;;;;7.31;61.51;99167.66;6175658;23;20003;-94
2023/11/20 07:50:48;;;;;;;30.70;18.77;;;;;;;7.43;61.06;99153.03;6179646;23;19997;-94
2023/11/20 07:53:24;;;;;;;41.13;18.15;;;;;;;7.63;61.04;99176.53;6183404;23;20514;-94
2023/11/20 07:56:22;;;;;;;36.97;19.85;;;;;;;7.63;60.33;99149.72;6175110;23;20064;-95
2023/11/20 07:59:11;;;;;;;27.25;16.77;;;;;;;7.73;59.37;99138.31;6213388;23;20044;-96
2023/11/20 08:05:47;;;;;;;37.88;17.92;;;;;;;8.36;58.68;99180.59;6171319;23;20515;-93
2023/11/20 08:09:07;;;;;;;35.05;18.00;;;;;;;8.29;58.44;99152.09;6145328;23;20075;-96
2023/11/20 08:12:36;;;;;;;32.33;18.13;;;;;;;8.76;57.72;99180.06;6143164;23;20111;-95
2023/11/20 08:15:25;;;;;;;38.28;18.60;;;;;;;8.76;57.29;99155.06;6099838;23;20002;-94
2023/11/20 08:25:29;;;;;;;28.48;16.35;;;;;;;9.55;54.86;99162.03;6106311;23;20022;-94
2023/11/20 08:28:34;;;;;;;;;;;;;;;;;;;;;
2023/11/20 08:31:19;;;;;;;15.47;8.60;;;;;;;10.38;51.41;99152.91;6121960;23;20005;-95
2023/11/20 08:34:08;;;;;;;4.25;2.20;;;;;;;10.62;48.56;99141.50;6116622;23;20021;-94
2023/11/20 08:37:13;;;;;;;;;;;;;;;;;;;;;
2023/11/20 08:39:54;;;;;;;3.30;1.40;;;;;;;11.25;47.04;99139.09;6132742;23;20028;-96
2023/11/20 08:45:51;;;;;;;;;;;;;;;;;;;;;
2023/11/20 08:48:59;;;;;;;2.70;1.17;;;;;;;12.09;45.09;99128.22;5998636;23;20388;-94
2023/11/20 08:51:27;;;;;;;3.20;1.40;;;;;;;12.00;44.98;99100.25;6079730;23;20026;-95
2023/11/20 08:54:19;;;;;;;2.30;1.40;;;;;;;12.23;44.90;99130.25;6054010;23;20074;-95
2023/11/20 08:56:51;;;;;;;2.70;1.58;;;;;;;12.13;44.97;99107.66;6076663;23;20131;-94
2023/11/20 08:59:17;;;;;;;2.80;1.30;;;;;;;12.08;44.95;99094.25;6027907;23;20077;-92
2023/11/20 09:01:45;;;;;;;3.60;1.30;;;;;;;12.12;45.05;99097.19;6097321;23;20002;-93
2023/11/20 09:04:40;;;;;;;3.45;1.80;;;;;;;12.08;45.58;99079.94;6054083;23;20093;-95
2023/11/20 09:07:14;;;;;;;3.40;1.63;;;;;;;12.18;45.67;99079.00;6082074;23;20003;-95
2023/11/20 09:09:41;;;;;;;1.90;1.25;;;;;;;12.17;44.91;99072.81;6062448;23;20013;-95
2023/11/20 09:12:25;;;;;;;2.15;1.20;;;;;;;12.22;45.29;99080.88;6083139;23;19994;-95
2023/11/20 09:14:51;;;;;;;1.75;1.15;;;;;;;12.21;44.61;99068.47;6172700;23;20008;-96
2023/11/20 09:17:20;;;;;;;2.58;1.33;;;;;;;12.24;45.48;99072.47;6194114;23;20037;-93
2023/11/20 09:19:56;;;;;;;1.25;1.10;;;;;;;12.20;44.93;99066.03;6170801;23;20000;-95
2023/11/20 09:22:25;;;;;;;1.63;1.13;;;;;;;12.22;45.72;99056.59;6152970;23;20076;-94
2023/11/20 09:25:00;;;;;;;2.17;1.20;;;;;;;12.52;45.37;99078.91;6149178;23;20057;-95
2023/11/20 09:27:28;;;;;;;1.75;1.30;;;;;;;12.47;44.99;99058.19;6177629;23;20092;-95
2023/11/20 09:29:54;;;;;;;1.48;1.10;;;;;;;12.58;44.88;99058.06;6175391;23;20036;-93
2023/11/20 09:32:20;;;;;;;1.88;1.02;;;;;;;12.56;45.20;99047.53;6167968;23;20007;-92
2023/11/20 09:34:46;;;;;;;2.30;1.25;;;;;;;12.65;45.33;99050.41;6168354;23;20380;-92
2023/11/20 09:37:11;;;;;;;2.15;1.20;;;;;;;12.58;45.47;99058.84;6170963;23;20309;-95
2023/11/20 09:39:41;;;;;;;1.77;1.20;;;;;;;12.56;45.72;99049.44;6172769;23;20015;-93
2023/11/20 09:42:17;;;;;;;1.88;1.17;;;;;;;12.56;45.32;99054.84;6148915;23;20058;-96
2023/11/20 09:44:43;;;;;;;1.85;1.20;;;;;;;12.64;45.56;99063.09;6154522;23;20004;-93
2023/11/20 09:47:18;;;;;;;2.28;1.20;;;;;;;12.76;45.76;99084.28;6174774;23;19996;-94
2023/11/20 09:49:56;;;;;;;3.42;1.75;;;;;;;12.89;45.60;99063.88;6151764;23;19993;-94
2023/11/20 09:56:27;;;;;;;1.77;1.10;;;;;;;13.22;45.42;99045.00;6031460;23;20044;-95
2023/11/20 09:59:12;;;;;;;3.15;2.13;;;;;;;13.56;45.12;99079.94;6092616;23;20499;-95
2023/11/20 10:01:40;;;;;;;3.92;1.38;;;;;;;13.64;45.12;99067.63;6091110;23;20033;-95
2023/11/20 10:04:07;;;;;;;5.10;1.65;;;;;;;13.64;44.48;99044.09;6135882;23;20001;-92
2023/11/20 10:07:26;;;;;;;;;;;;;;;;;;;;;
2023/11/20 10:10:18;;;;;;;2.13;1.13;;;;;;;13.77;45.03;99074.19;6160243;23;20021;-92
2023/11/20 10:13:04;;;;;;;5.07;1.30;;;;;;;13.50;44.81;99048.66;6141282;23;20444;-96
2023/11/20 10:15:33;;;;;;;2.58;1.33;;;;;;;13.44;45.50;99055.25;6090577;23;20244;-94
2023/11/20 10:21:01;;;;;;;4.85;2.30;;;;;;;13.39;46.29;99058.03;6219715;22;20466;-92
2023/11/20 10:23:36;;;;;;;6.30;2.42;;;;;;;13.27;46.43;99036.81;6152231;23;20017;-95
2023/11/20 10:26:14;;;;;;;2.20;1.60;;;;;;;13.23;46.87;99052.03;6179074;23;20020;-96
2023/11/20 10:28:40;;;;;;;2.53;1.48;;;;;;;13.24;46.87;99042.81;6175327;23;20094;-94
2023/11/20 10:31:08;;;;;;;4.10;2.08;;;;;;;13.20;46.98;99037.19;6148604;23;19996;-96
2023/11/20 10:33:53;;;;;;;2.97;1.45;;;;;;;13.14;46.90;99028.34;6151338;23;20001;-95
2023/11/20 10:36:29;;;;;;;;;;;;;;;;;;;;;
2023/11/20 10:38:55;;;;;;;3.22;1.60;;;;;;;13.04;47.05;99019.59;6174955;23;20047;-94
2023/11/20 10:41:21;;;;;;;3.03;1.65;;;;;;;13.13;47.03;99044.84;6145330;23;20083;-92
2023/11/20 10:43:46;;;;;;;3.28;1.33;;;;;;;13.07;47.60;99038.75;6145965;23;20001;-93
2023/11/20 10:46:15;;;;;;;2.53;1.40;;;;;;;13.01;47.58;99028.28;6172158;23;20029;-95
2023/11/20 10:49:08;;;;;;;2.15;1.30;;;;;;;12.97;47.67;99011.88;6174954;23;20004;-94
2023/11/20 10:51:40;;;;;;;7.85;5.22;;;;;;;13.06;47.76;99036.31;6110715;23;20011;-96
2023/11/20 10:58:03;;;;;;;6.90;4.05;;;;;;;13.20;48.27;99036.38;6232195;23;20024;-96
2023/11/20 11:01:03;;;;;;;;;;;;;;;13.28;48.31;99027.59;6164627;23;20013;-96
2023/11/20 11:04:14;;;;;;;3.80;1.83;;;;;;;13.01;48.54;98999.38;6235352;22;19920;-95
2023/11/20 11:06:45;;;;;;;5.03;2.40;;;;;;;13.28;47.81;99038.41;6204416;23;20391;-96
2023/11/20 11:09:18;;;;;;;4.13;1.93;;;;;;;13.18;47.86;99006.94;6179016;23;20008;-95
2023/11/20 11:12:42;;;;;;;;;;;;;;;;;;;;;
2023/11/20 11:15:14;;;;;;;3.53;1.58;;;;;;;13.15;48.15;99004.81;6229754;23;19997;-95
2023/11/20 11:18:09;;;;;;;4.85;1.95;;;;;;;13.15;48.25;98999.41;6151503;23;20009;-95
2023/11/20 11:20:41;;;;;;;3.60;1.60;;;;;;;13.24;48.93;99021.16;6136218;22;20025;-95
2023/11/20 11:23:11;;;;;;;2.88;1.70;;;;;;;13.24;48.28;99019.28;6171706;23;19985;-96
2023/11/20 11:25:53;;;;;;;18.77;9.02;;;;;;;12.94;48.53;98988.13;6154277;23;20004;-95
2023/11/20 11:28:22;;;;;;;3.63;1.95;;;;;;;12.99;48.90;98995.34;6143110;23;20004;-95
2023/11/20 11:33:57;;;;;;;3.60;2.22;;;;;;;13.20;49.07;99020.97;6214963;22;20478;-96
2023/11/20 11:36:55;;;;;;;2.53;1.60;;;;;;;13.25;48.99;99014.69;6172379;23;20056;-96
2023/11/20 11:39:27;;;;;;;2.45;1.80;;;;;;;13.23;49.15;99012.25;6170438;23;20087;-95
2023/11/20 11:41:56;;;;;;;2.50;1.50;;;;;;;13.11;49.43;98987.59;6154066;23;20011;-96
2023/11/20 11:52:36;;;;;;;2.42;1.45;;;;;;;13.29;49.83;98983.28;6210035;22;20515;-93
2023/11/20 11:55:26;;;;;;;;;;;;;;;;;;;;;
2023/11/20 12:01:25;;;;;;;1.95;1.10;;;;;;;13.60;49.81;98999.78;6197807;22;20013;-96
2023/11/20 12:03:55;;;;;;;1.90;1.20;;;;;;;13.41;49.45;98988.22;6175706;23;20025;-96
2023/11/20 12:06:21;;;;;;;1.90;1.17;;;;;;;13.49;49.93;99001.88;6148735;23;20004;-93
2023/11/20 12:08:48;;;;;;;1.88;1.00;;;;;;;13.44;49.97;98993.81;6192531;23;20004;-93
2023/11/20 12:11:53;;;;;;;2.20;1.38;;;;;;;13.43;49.95;98986.81;6146392;23;20024;-95
2023/11/20 12:14:44;;;;;;;2.45;1.80;;;;;;;13.56;50.21;99001.47;6228516;23;20015;-96
2023/11/20 12:17:14;;;;;;;2.55;1.30;;;;;;;13.50;50.00;98991.84;6151254;23;20020;-93
2023/11/20 12:19:40;;;;;;;4.15;1.38;;;;;;;13.41;49.92;98967.41;6143439;23;20000;-91
2023/11/20 12:22:07;;;;;;;2.85;1.60;;;;;;;13.63;50.51;99004.59;6167300;23;20368;-92
2023/11/20 12:24:38;;;;;;;4.22;2.65;;;;;;;13.63;50.13;99003.78;6167043;23;20000;-92
2023/11/20 12:27:09;;;;;;;2.92;1.50;;;;;;;13.53;50.10;98986.66;6141755;23;20008;-94
2023/11/20 12:29:41;;;;;;;1.65;1.10;;;;;;;13.68;49.88;98992.91;6145999;23;20004;-93
2023/11/20 12:32:10;;;;;;;8.48;1.95;;;;;;;13.64;49.77;98975.66;6168615;23;20001;-92
2023/11/20 12:34:35;;;;;;;5.03;2.05;;;;;;;13.72;50.03;98974.97;6166699;23;20000;-92
2023/11/20 12:37:04;;;;;;;5.85;2.80;;;;;;;13.92;49.89;98976.47;6169061;23;20053;-95
2023/11/20 12:39:56;;;;;;;5.85;1.80;;;;;;;14.02;49.72;98983.59;6150951;23;20001;-95